Terminal Aerodrome Forecast
Issued by NWS Cleveland, OH

Home | Current Version | Previous Version | Graphics & Text | Print | Product List | Glossary Off
Versions: 1 2 3 4 5 6 7 8 9 10 11 12 13 14 15 16 17 18

025
FTUS41 KCLE 231138
TAFYNG
TAF
KYNG 231138Z 2312/2412 VRB03KT P6SM SCT020 BKN035
      TEMPO 2313/2315 BKN020
     FM231600 22005KT P6SM VCTS SCT025CB BKN040
     FM232100 27005KT P6SM SCT030 BKN060 PROB30 2323/2405 5SM -TSRA
      BKN030CB=

USA.gov is the U.S. government's official web portal to all federal, state and local government web resources and services.